createdAt,value
2022-11-10T00:02:29.008Z,100698.19
2022-11-10T00:05:49.482Z,100693.41
2022-11-10T00:09:11.328Z,100689.38
2022-11-10T00:12:32.944Z,100693.72
2022-11-10T00:16:12.559Z,100697.59
2022-11-10T00:19:34.629Z,100702.16
2022-11-10T00:22:55.285Z,100701.44
2022-11-10T00:26:18.713Z,100703.75
2022-11-10T00:29:39.094Z,100707.00
2022-11-10T00:32:59.666Z,100707.00
2022-11-10T00:36:19.868Z,100714.25
2022-11-10T00:39:40.308Z,100720.13
2022-11-10T00:43:01.865Z,100728.50
2022-11-10T00:46:22.080Z,100737.53
2022-11-10T00:49:42.283Z,100742.94
2022-11-10T00:53:02.847Z,100750.41
2022-11-10T00:56:23.178Z,100766.13
2022-11-10T00:59:44.892Z,100758.00
2022-11-10T01:03:05.379Z,100767.13
2022-11-10T01:06:25.746Z,100770.94
2022-11-10T01:09:46.037Z,100774.31
2022-11-10T01:13:06.443Z,100777.63
2022-11-10T01:16:30.394Z,100789.91
2022-11-10T01:19:50.759Z,100795.69
2022-11-10T01:23:11.424Z,100794.00
2022-11-10T01:26:31.947Z,100797.25
2022-11-10T01:29:52.204Z,100813.47
2022-11-10T01:33:14.021Z,100816.59
2022-11-10T01:36:34.341Z,100816.53
2022-11-10T01:39:54.764Z,100813.59
2022-11-10T01:43:15.840Z,100815.09
2022-11-10T01:46:35.862Z,100817.50
2022-11-10T01:49:57.566Z,100817.50
2022-11-10T01:53:23.178Z,100828.09
2022-11-10T01:56:47.080Z,100834.97
2022-11-10T02:00:08.865Z,100844.88
2022-11-10T02:03:35.536Z,100844.72
2022-11-10T02:06:58.366Z,100845.78
2022-11-10T02:10:20.860Z,100839.47
2022-11-10T02:13:41.424Z,100845.63
2022-11-10T02:17:01.836Z,100839.72
2022-11-10T02:20:22.260Z,100845.50
2022-11-10T02:23:51.511Z,100855.88
2022-11-10T02:27:12.941Z,100851.22
2022-11-10T02:30:33.211Z,100855.53
2022-11-10T02:33:53.380Z,100863.31
2022-11-10T02:37:13.908Z,100861.50
2022-11-10T02:40:35.708Z,100865.56
2022-11-10T02:43:57.613Z,100873.44
2022-11-10T02:47:17.743Z,100873.69
2022-11-10T02:50:38.169Z,100870.38
2022-11-10T02:53:58.365Z,100874.00
2022-11-10T02:57:20.064Z,100880.91
2022-11-10T03:00:40.469Z,100875.34
2022-11-10T03:04:00.663Z,100880.44
2022-11-10T03:07:21.116Z,100882.69
2022-11-10T03:10:41.513Z,100883.06
2022-11-10T03:14:03.758Z,100883.78
2022-11-10T03:17:23.944Z,100871.09
2022-11-10T03:20:47.560Z,100881.72
2022-11-10T03:24:08.168Z,100889.75
2022-11-10T03:27:28.361Z,100904.53
2022-11-10T03:30:50.381Z,100910.81
2022-11-10T03:34:11.260Z,100920.25
2022-11-10T03:37:31.753Z,100927.59
2022-11-10T03:44:32.540Z,100922.97
2022-11-10T03:47:54.317Z,100929.50
2022-11-10T03:51:14.617Z,100937.38
2022-11-10T03:54:34.850Z,100941.69
2022-11-10T03:57:55.391Z,100952.94
2022-11-10T04:01:15.957Z,100963.03
2022-11-10T04:04:56.192Z,100965.91
2022-11-10T04:08:36.761Z,100968.47
2022-11-10T04:12:20.716Z,100976.94
2022-11-10T04:16:03.020Z,100979.22
2022-11-10T04:19:23.659Z,100987.88
2022-11-10T04:23:03.832Z,100995.09
2022-11-10T04:26:29.982Z,101001.53
2022-11-10T04:29:50.167Z,101002.47
2022-11-10T04:33:10.420Z,101001.13
2022-11-10T04:36:32.865Z,101011.81
2022-11-10T04:39:54.395Z,101009.78
2022-11-10T04:43:14.764Z,101009.94
2022-11-10T04:46:36.615Z,101015.41
2022-11-10T04:49:56.845Z,101024.19
2022-11-10T04:53:17.263Z,101026.75
2022-11-10T04:56:40.175Z,101028.13
2022-11-10T05:00:00.156Z,101020.34
2022-11-10T05:03:21.132Z,101018.06
2022-11-10T05:06:41.575Z,101023.84
2022-11-10T05:10:01.917Z,101024.69
2022-11-10T05:13:23.977Z,101019.91
2022-11-10T05:16:44.464Z,101032.72
2022-11-10T05:20:05.725Z,101023.22
2022-11-10T05:23:37.747Z,101032.16
2022-11-10T05:26:57.888Z,101034.53
2022-11-10T05:30:19.725Z,101059.53
2022-11-10T05:33:40.201Z,101057.91
2022-11-10T05:37:00.259Z,101066.66
2022-11-10T05:40:20.700Z,101069.81
2022-11-10T05:43:40.865Z,101086.91
2022-11-10T05:47:02.922Z,101100.22
2022-11-10T05:50:23.614Z,101104.97
2022-11-10T05:53:44.013Z,101104.56
2022-11-10T05:57:04.392Z,101110.69
2022-11-10T06:00:26.352Z,101124.78
2022-11-10T06:03:48.275Z,101127.47
2022-11-10T06:07:08.590Z,101142.31
2022-11-10T06:10:29.364Z,101148.06
2022-11-10T06:13:49.674Z,101154.09
2022-11-10T06:17:10.172Z,101148.47
2022-11-10T06:20:32.211Z,101149.09
2022-11-10T06:23:52.455Z,101156.13
2022-11-10T06:27:12.935Z,101169.16
2022-11-10T06:30:35.592Z,101180.22
2022-11-10T06:33:55.825Z,101190.31
2022-11-10T06:37:17.561Z,101200.69
2022-11-10T06:40:38.091Z,101202.94
2022-11-10T06:43:58.716Z,101211.84
2022-11-10T06:47:18.821Z,101219.19
2022-11-10T06:50:39.141Z,101232.81
2022-11-10T06:54:00.527Z,101239.75
2022-11-10T06:57:20.972Z,101237.13
2022-11-10T07:00:41.400Z,101250.34
2022-11-10T07:04:21.281Z,101274.25
2022-11-10T07:07:42.006Z,101274.53
2022-11-10T07:11:03.518Z,101285.00
2022-11-10T07:14:23.825Z,101284.59
2022-11-10T07:17:44.311Z,101285.59
2022-11-10T07:21:05.494Z,101288.34
2022-11-10T07:24:26.423Z,101293.63
2022-11-10T07:27:53.381Z,101288.03
2022-11-10T07:31:13.806Z,101296.88
2022-11-10T07:34:34.026Z,101311.38
2022-11-10T07:37:55.221Z,101303.22
2022-11-10T07:41:15.475Z,101315.59
2022-11-10T07:44:36.892Z,101323.06
2022-11-10T07:48:00.754Z,101320.59
2022-11-10T07:51:21.145Z,101327.91
2022-11-10T07:54:41.390Z,101339.69
2022-11-10T07:58:01.834Z,101341.34
2022-11-10T08:01:23.395Z,101346.75
2022-11-10T08:04:44.230Z,101342.88
2022-11-10T08:08:05.456Z,101348.56
2022-11-10T08:11:25.550Z,101354.16
2022-11-10T08:14:45.621Z,101355.97
2022-11-10T08:18:18.092Z,101356.94
2022-11-10T08:21:38.220Z,101360.78
2022-11-10T08:24:58.244Z,101360.38
2022-11-10T08:28:19.920Z,101365.59
2022-11-10T08:31:39.855Z,101360.59
2022-11-10T08:35:01.799Z,101368.41
2022-11-10T08:38:23.328Z,101378.16
2022-11-10T08:41:43.420Z,101382.19
2022-11-10T08:45:03.896Z,101386.28
2022-11-10T08:48:24.199Z,101387.56
2022-11-10T08:51:45.576Z,101395.28
2022-11-10T08:55:06.049Z,101400.53
2022-11-10T08:58:26.687Z,101392.47
2022-11-10T09:01:46.881Z,101391.47
2022-11-10T09:05:07.865Z,101401.72
2022-11-10T09:08:30.338Z,101411.47
2022-11-10T09:11:50.683Z,101413.59
2022-11-10T09:15:11.743Z,101421.75
2022-11-10T09:18:32.539Z,101426.91
2022-11-10T09:21:53.106Z,101424.88
2022-11-10T09:25:15.060Z,101434.38
2022-11-10T09:28:35.334Z,101445.03
2022-11-10T09:31:55.832Z,101442.09
2022-11-10T09:35:15.979Z,101438.34
2022-11-10T09:38:36.352Z,101444.66
2022-11-10T09:41:58.095Z,101448.25
2022-11-10T09:45:23.604Z,101450.56
2022-11-10T09:48:47.905Z,101452.81
2022-11-10T09:52:12.049Z,101456.03
2022-11-10T09:55:38.731Z,101462.06
2022-11-10T09:59:01.022Z,101457.41
2022-11-10T10:02:27.046Z,101449.38
2022-11-10T10:05:58.230Z,101444.66
2022-11-10T10:09:28.381Z,101444.94
2022-11-10T10:13:08.134Z,101458.44
2022-11-10T10:16:38.048Z,101469.19
2022-11-10T10:20:05.121Z,101470.97
2022-11-10T10:23:54.439Z,101465.28
2022-11-10T10:27:19.816Z,101474.56
2022-11-10T10:30:41.405Z,101468.75
2022-11-10T10:34:03.324Z,101470.75
2022-11-10T10:37:26.954Z,101462.56
2022-11-10T10:40:50.064Z,101466.91
2022-11-10T10:44:13.133Z,101470.81
2022-11-10T10:47:36.364Z,101470.94
2022-11-10T10:50:58.076Z,101473.78
2022-11-10T10:54:27.372Z,101465.63
2022-11-10T10:57:51.190Z,101473.16
2022-11-10T11:01:25.269Z,101476.97
2022-11-10T11:04:45.353Z,101473.56
2022-11-10T11:08:18.111Z,101460.03
2022-11-10T11:11:40.903Z,101462.66
2022-11-10T11:15:21.148Z,101459.19
2022-11-10T11:18:41.414Z,101462.31
2022-11-10T11:22:48.172Z,101464.09
2022-11-10T11:26:19.705Z,101470.03
2022-11-10T11:29:54.591Z,101480.25
2022-11-10T11:33:31.871Z,101470.81
2022-11-10T11:37:00.760Z,101465.53
2022-11-10T11:40:28.764Z,101464.31
2022-11-10T11:44:07.919Z,101465.31
2022-11-10T11:47:39.521Z,101471.63
2022-11-10T11:51:09.051Z,101474.78
2022-11-10T11:54:43.849Z,101468.66
2022-11-10T11:58:22.787Z,101474.34
2022-11-10T12:02:01.955Z,101486.03
2022-11-10T12:05:37.166Z,101485.88
2022-11-10T12:09:00.538Z,101480.59
2022-11-10T12:12:42.602Z,101474.00
2022-11-10T12:16:09.339Z,101473.78
2022-11-10T12:19:38.295Z,101477.78
2022-11-10T12:23:04.871Z,101477.50
2022-11-10T12:26:35.055Z,101477.88
2022-11-10T12:30:01.212Z,101471.66
2022-11-10T12:33:35.399Z,101472.56
2022-11-10T12:36:59.738Z,101476.44
2022-11-10T12:40:23.086Z,101461.63
2022-11-10T12:44:00.445Z,101468.25
2022-11-10T12:47:25.909Z,101462.84
2022-11-10T12:50:53.944Z,101477.34
2022-11-10T12:54:17.823Z,101486.53
2022-11-10T12:57:38.539Z,101482.09
2022-11-10T13:01:02.788Z,101484.47
2022-11-10T13:04:23.922Z,101494.97
2022-11-10T13:07:47.477Z,101487.19
2022-11-10T13:11:28.049Z,101489.38
2022-11-10T13:14:48.755Z,101492.75
2022-11-10T13:18:09.766Z,101494.31
2022-11-10T13:22:04.903Z,101495.66
2022-11-10T13:26:02.201Z,101496.72
2022-11-10T13:29:34.658Z,101501.28
2022-11-10T13:32:55.051Z,101504.47
2022-11-10T13:36:36.632Z,101498.19
2022-11-10T13:40:26.977Z,101508.88
2022-11-10T13:43:48.872Z,101511.53
2022-11-10T13:47:35.055Z,101502.69
2022-11-10T13:51:07.035Z,101508.03
2022-11-10T13:54:59.230Z,101508.38
2022-11-10T13:58:26.723Z,101508.56
2022-11-10T14:01:47.182Z,101503.28
2022-11-10T14:05:30.069Z,101517.13
2022-11-10T14:08:54.698Z,101512.16
2022-11-10T14:12:22.110Z,101515.38
2022-11-10T14:15:45.123Z,101519.06
2022-11-10T14:19:22.905Z,101512.56
2022-11-10T14:22:44.727Z,101510.78
2022-11-10T14:26:13.096Z,101522.66
2022-11-10T14:29:38.226Z,101524.22
2022-11-10T14:33:02.161Z,101522.94
2022-11-10T14:36:23.128Z,101526.06
2022-11-10T14:39:44.578Z,101535.97
2022-11-10T14:43:05.082Z,101531.34
2022-11-10T14:46:25.481Z,101532.13
2022-11-10T14:49:45.909Z,101539.13
2022-11-10T14:53:12.394Z,101535.59
2022-11-10T14:56:36.841Z,101532.66
2022-11-10T14:59:56.853Z,101539.03
2022-11-10T15:03:22.513Z,101541.22
2022-11-10T15:06:47.058Z,101553.03
2022-11-10T15:10:14.672Z,101556.97
2022-11-10T15:13:38.675Z,101564.88
2022-11-10T15:17:02.847Z,101569.56
2022-11-10T15:20:31.830Z,101571.72
2022-11-10T15:23:54.441Z,101576.03
2022-11-10T15:27:23.263Z,101577.16
2022-11-10T15:30:56.512Z,101566.81
2022-11-10T15:34:40.530Z,101564.50
2022-11-10T15:38:03.437Z,101569.38
2022-11-10T15:41:27.488Z,101570.31
2022-11-10T15:44:48.311Z,101576.13
2022-11-10T15:48:13.010Z,101570.72
2022-11-10T15:51:33.675Z,101576.00
2022-11-10T15:54:53.863Z,101592.44
2022-11-10T15:58:15.598Z,101586.25
2022-11-10T16:01:35.732Z,101585.00
2022-11-10T16:05:00.063Z,101599.25
2022-11-10T16:08:23.018Z,101611.50
2022-11-10T16:11:44.539Z,101608.69
2022-11-10T16:15:06.315Z,101612.53
2022-11-10T16:18:29.123Z,101613.53
2022-11-10T16:21:50.921Z,101615.53
2022-11-10T16:25:20.505Z,101615.88
2022-11-10T16:28:44.265Z,101627.28
2022-11-10T16:32:04.935Z,101621.84
2022-11-10T16:35:25.731Z,101620.50
2022-11-10T16:38:47.618Z,101626.00
2022-11-10T16:42:09.525Z,101637.22
2022-11-10T16:45:30.327Z,101629.47
2022-11-10T16:48:52.597Z,101632.38
2022-11-10T16:52:15.887Z,101633.72
2022-11-10T16:55:37.308Z,101635.31
2022-11-10T16:58:57.485Z,101648.97
2022-11-10T17:02:26.359Z,101645.81
2022-11-10T17:05:47.037Z,101648.63
2022-11-10T17:09:13.163Z,101658.25
2022-11-10T17:12:34.739Z,101655.78
2022-11-10T17:16:01.073Z,101656.16
2022-11-10T17:19:24.059Z,101666.09
2022-11-10T17:22:44.176Z,101665.75
2022-11-10T17:26:05.117Z,101663.31
2022-11-10T17:29:29.084Z,101671.63
2022-11-10T17:33:04.855Z,101690.38
2022-11-10T17:36:26.109Z,101693.16
2022-11-10T17:39:46.613Z,101688.69
2022-11-10T17:43:09.973Z,101694.31
2022-11-10T17:46:31.483Z,101698.63
2022-11-10T17:49:51.781Z,101708.19
2022-11-10T17:53:17.685Z,101709.13
2022-11-10T17:56:38.301Z,101710.66
2022-11-10T17:59:58.566Z,101706.69
2022-11-10T18:03:23.049Z,101700.69
2022-11-10T18:06:44.214Z,101711.75
2022-11-10T18:10:05.349Z,101709.69
2022-11-10T18:13:25.635Z,101716.44
2022-11-10T18:16:46.166Z,101724.28
2022-11-10T18:20:09.382Z,101727.25
2022-11-10T18:23:29.652Z,101727.63
2022-11-10T18:26:50.007Z,101730.03
2022-11-10T18:30:11.092Z,101730.03
2022-11-10T18:33:31.416Z,101726.28
2022-11-10T18:36:53.143Z,101725.16
2022-11-10T18:40:14.126Z,101722.31
2022-11-10T18:43:34.654Z,101721.00
2022-11-10T18:46:55.453Z,101722.06
2022-11-10T18:50:16.373Z,101721.88
2022-11-10T18:53:38.730Z,101720.94
2022-11-10T18:56:59.220Z,101734.38
2022-11-10T19:00:19.841Z,101728.91
2022-11-10T19:03:40.056Z,101727.03
2022-11-10T19:07:00.574Z,101737.13
2022-11-10T19:10:22.182Z,101741.25
2022-11-10T19:13:43.468Z,101742.50
2022-11-10T19:17:03.869Z,101737.19
2022-11-10T19:20:24.090Z,101736.53
2022-11-10T19:23:44.574Z,101746.59
2022-11-10T19:27:07.296Z,101749.72
2022-11-10T19:30:27.692Z,101760.50
2022-11-10T19:33:47.941Z,101756.00
2022-11-10T19:37:08.507Z,101760.91
2022-11-10T19:40:29.135Z,101771.34
2022-11-10T19:43:50.570Z,101771.41
2022-11-10T19:47:11.137Z,101785.53
2022-11-10T19:50:31.521Z,101787.72
2022-11-10T19:53:57.818Z,101813.00
2022-11-10T19:57:18.171Z,101812.84
2022-11-10T20:00:40.233Z,101816.69
2022-11-10T20:04:01.101Z,101822.63
2022-11-10T20:07:40.162Z,101817.94
2022-11-10T20:11:01.999Z,101822.88
2022-11-10T20:14:22.432Z,101812.09
2022-11-10T20:17:44.233Z,101797.63
2022-11-10T20:21:05.706Z,101804.53
2022-11-10T20:24:27.624Z,101797.81
2022-11-10T20:27:48.036Z,101796.63
2022-11-10T20:31:10.933Z,101801.13
2022-11-10T20:34:32.675Z,101798.94
2022-11-10T20:37:53.069Z,101800.22
2022-11-10T20:41:15.559Z,101800.72
2022-11-10T20:44:36.077Z,101804.06
2022-11-10T20:47:57.775Z,101781.94
2022-11-10T20:51:20.416Z,101799.38
2022-11-10T20:54:40.517Z,101804.84
2022-11-10T20:58:00.994Z,101797.53
2022-11-10T21:01:23.246Z,101800.22
2022-11-10T21:04:43.544Z,101793.47
2022-11-10T21:08:05.493Z,101800.91
2022-11-10T21:11:44.546Z,101791.72
2022-11-10T21:15:06.106Z,101793.72
2022-11-10T21:18:28.590Z,101798.31
2022-11-10T21:21:50.972Z,101799.69
2022-11-10T21:25:13.514Z,101805.06
2022-11-10T21:28:34.051Z,101818.94
2022-11-10T21:31:54.287Z,101815.63
2022-11-10T21:35:14.531Z,101811.03
2022-11-10T21:38:35.851Z,101810.66
2022-11-10T21:41:57.706Z,101807.13
2022-11-10T21:45:17.895Z,101804.34
2022-11-10T21:48:38.277Z,101807.66
2022-11-10T21:51:58.591Z,101801.13
2022-11-10T21:55:18.745Z,101801.56
2022-11-10T21:58:40.515Z,101792.66
2022-11-10T22:02:01.126Z,101787.75
2022-11-10T22:05:21.249Z,101789.44
2022-11-10T22:08:44.139Z,101781.31
2022-11-10T22:12:23.315Z,101780.69
2022-11-10T22:16:03.083Z,101785.06
2022-11-10T22:19:23.589Z,101786.50
2022-11-10T22:22:44.204Z,101798.66
2022-11-10T22:26:04.296Z,101797.59
2022-11-10T22:29:31.239Z,101800.00
2022-11-10T22:32:53.699Z,101797.44
2022-11-10T22:36:16.420Z,101808.38
2022-11-10T22:39:55.359Z,101815.69
2022-11-10T22:43:54.642Z,101812.34
2022-11-10T22:47:14.799Z,101809.66
2022-11-10T22:50:36.629Z,101818.94
2022-11-10T22:53:56.793Z,101817.81
2022-11-10T22:57:17.032Z,101814.78
2022-11-10T23:00:37.508Z,101808.13
2022-11-10T23:03:58.246Z,101799.72
2022-11-10T23:07:20.074Z,101798.81
2022-11-10T23:10:40.753Z,101796.50
2022-11-10T23:14:01.085Z,101793.59
2022-11-10T23:17:21.537Z,101789.84
2022-11-10T23:20:41.732Z,101798.19
2022-11-10T23:24:03.658Z,101804.34
2022-11-10T23:27:23.997Z,101801.50
2022-11-10T23:30:44.441Z,101801.44
2022-11-10T23:34:05.075Z,101798.38
2022-11-10T23:37:25.554Z,101802.88
2022-11-10T23:40:47.271Z,101805.81
2022-11-10T23:44:07.847Z,101805.47
2022-11-10T23:47:28.536Z,101809.41
2022-11-10T23:50:48.941Z,101802.09
2022-11-10T23:54:09.456Z,101797.50
2022-11-10T23:57:31.268Z,101801.81
